To NAV CANADA Home Page Login to a new session Search on AWWS site Feedback and Comments Disclaimer Vers la page française équivalente Tips FAQ What's new on the site To the Forecasts and Observations / NOTAM section To "File a Flight Plan" website Publications and other links Update of the User's profile FIC Telephone Numbers My Weather Data Folder Route Weather Data Regional Weather Data Local Weather Data To the Forecasts and Observations / NOTAM section
Request Generated 07/26/2016 at 04:28:30 UTC . Weather information available at that time is displayed.

METAR/TAF

CLYDE RIVER/NU    (show WxCam)

METAR CYCY 260400Z AUTO 21012KT 9SM SCT180 13/06 A3005 RMK SLP180=
METAR CYCY 260300Z AUTO 21004KT 180V260 9SM BKN170 13/06 A3006 RMK
SLP183=
METAR CYCY 260200Z AUTO 21008KT 9SM BKN060 14/07 A3005 RMK SLP180=

TAF CYCY 260043Z 2601/2613 20012KT P6SM FEW060 FEW120 TEMPO 2601/2613
BKN060
RMK FCST BASED ON AUTO OBS. NXT FCST BY 260700Z=
Your time UTC time
Weather data provided by Environment Canada and NAV CANADA